Time;durP1;ratioP1;P1;durP2;ratioP2;P2;SDS_P1;SDS_P2;PMS_P1;PMS_P2;Temp;Humidity;BMP_temperature;BMP_pressure;BME280_temperature;BME280_humidity;BME280_pressure;Samples;Min_cycle;Max_cycle;Signal;HPM_P1;HPM_P2
2022/04/24 00:00:15;;;;;;;22.17;10.50;;;;;;;;;;5082942;28;20347;-70
2022/04/24 00:02:41;;;;;;;26.17;13.43;;;;;;;;;;5079779;28;20025;-68
2022/04/24 00:05:06;;;;;;;22.40;11.20;;;;;;;;;;5079770;28;20063;-71
2022/04/24 00:07:31;;;;;;;23.27;12.43;;;;;;;;;;5081761;28;20024;-75
2022/04/24 00:09:57;;;;;;;20.85;11.63;;;;;;;;;;5061923;28;20024;-74
2022/04/24 00:12:22;;;;;;;29.10;13.73;;;;;;;;;;5075193;28;20105;-71
2022/04/24 00:14:48;;;;;;;26.45;13.73;;;;;;;;;;5075828;28;20067;-72
2022/04/24 00:17:15;;;;;;;21.25;11.73;;;;;;;;;;5077987;28;20146;-71
2022/04/24 00:19:41;;;;;;;22.83;11.80;;;;;;;;;;5079850;28;20292;-72
2022/04/24 00:22:06;;;;;;;21.45;11.95;;;;;;;;;;5071957;28;20498;-70
2022/04/24 00:24:32;;;;;;;21.77;13.02;;;;;;;;;;5078915;28;20032;-67
2022/04/24 00:26:58;;;;;;;21.23;12.07;;;;;;;;;;5080661;28;20024;-71
2022/04/24 00:29:23;;;;;;;27.17;13.30;;;;;;;;;;5078202;28;20039;-69
2022/04/24 00:31:48;;;;;;;36.38;17.60;;;;;;;;;;5080484;28;20035;-69
2022/04/24 00:34:14;;;;;;;33.80;15.02;;;;;;;;;;5070829;28;20059;-69
2022/04/24 00:36:39;;;;;;;31.15;16.50;;;;;;;;;;5078624;28;20020;-68
2022/04/24 00:39:05;;;;;;;23.00;12.80;;;;;;;;;;5080710;28;20027;-67
2022/04/24 00:41:30;;;;;;;22.92;13.75;;;;;;;;;;5080598;28;20031;-71
2022/04/24 00:43:55;;;;;;;22.10;13.48;;;;;;;;;;5080917;28;20031;-68
2022/04/24 00:46:21;;;;;;;22.13;15.52;;;;;;;;;;5081379;28;20016;-74
2022/04/24 00:48:47;;;;;;;17.88;13.20;;;;;;;;;;5073272;28;20077;-73
2022/04/24 00:51:12;;;;;;;14.65;10.20;;;;;;;;;;5076868;28;20035;-68
2022/04/24 00:53:37;;;;;;;15.15;9.52;;;;;;;;;;5080098;28;20039;-66
2022/04/24 00:56:03;;;;;;;16.67;10.20;;;;;;;;;;5079885;28;20039;-67
2022/04/24 00:58:29;;;;;;;14.63;9.45;;;;;;;;;;5080011;28;20035;-65
2022/04/24 01:00:55;;;;;;;12.77;8.32;;;;;;;;;;5080613;28;20331;-67
2022/04/24 01:03:20;;;;;;;16.65;8.63;;;;;;;;;;5080073;28;20032;-69
2022/04/24 01:05:46;;;;;;;13.18;8.13;;;;;;;;;;5070107;28;20048;-73
2022/04/24 01:08:11;;;;;;;15.27;8.90;;;;;;;;;;5079084;28;20030;-66
2022/04/24 01:10:37;;;;;;;18.20;10.10;;;;;;;;;;5072974;28;20028;-66
2022/04/24 01:13:03;;;;;;;14.93;8.40;;;;;;;;;;5075111;28;20332;-73
2022/04/24 01:15:28;;;;;;;11.60;5.65;;;;;;;;;;5079428;28;20024;-67
2022/04/24 01:17:54;;;;;;;7.57;4.50;;;;;;;;;;5081114;28;20069;-71
2022/04/24 01:20:21;;;;;;;6.35;3.67;;;;;;;;;;5080934;28;20749;-66
2022/04/24 01:22:46;;;;;;;5.97;3.15;;;;;;;;;;5081509;28;20027;-73
2022/04/24 01:25:13;;;;;;;13.95;5.82;;;;;;;;;;5084950;28;20019;-68
2022/04/24 01:27:38;;;;;;;18.60;8.05;;;;;;;;;;5083267;28;20098;-67
2022/04/24 01:30:04;;;;;;;14.00;5.90;;;;;;;;;;5077626;28;20016;-66
2022/04/24 01:32:30;;;;;;;13.52;6.93;;;;;;;;;;5079694;28;20039;-74
2022/04/24 01:34:55;;;;;;;13.85;7.45;;;;;;;;;;5084072;28;20024;-73
2022/04/24 01:37:20;;;;;;;18.83;8.73;;;;;;;;;;5083956;28;20016;-69
2022/04/24 01:39:46;;;;;;;13.00;7.20;;;;;;;;;;5083107;28;20044;-67
2022/04/24 01:42:11;;;;;;;23.15;10.68;;;;;;;;;;5083858;28;20886;-67
2022/04/24 01:44:36;;;;;;;19.52;9.65;;;;;;;;;;5081844;28;20032;-65
2022/04/24 01:47:02;;;;;;;21.30;9.82;;;;;;;;;;5082465;28;20103;-67
2022/04/24 01:49:27;;;;;;;18.88;8.57;;;;;;;;;;5082848;28;20032;-66
2022/04/24 01:51:52;;;;;;;19.40;7.88;;;;;;;;;;5071026;28;20027;-66
2022/04/24 01:54:18;;;;;;;19.00;7.85;;;;;;;;;;5083166;28;20051;-68
2022/04/24 01:56:43;;;;;;;14.93;7.45;;;;;;;;;;5083425;28;20016;-77
2022/04/24 01:59:08;;;;;;;15.40;7.10;;;;;;;;;;5082585;28;20047;-68
2022/04/24 02:01:34;;;;;;;16.73;8.15;;;;;;;;;;5083060;28;20047;-66
2022/04/24 02:03:59;;;;;;;15.57;6.65;;;;;;;;;;5072231;28;20961;-73
2022/04/24 02:06:24;;;;;;;22.10;9.75;;;;;;;;;;5083487;28;20358;-69
2022/04/24 02:08:50;;;;;;;18.10;7.85;;;;;;;;;;5082855;28;20137;-69
2022/04/24 02:11:15;;;;;;;11.95;6.63;;;;;;;;;;5082444;28;20028;-66
2022/04/24 02:13:40;;;;;;;10.05;5.90;;;;;;;;;;5083100;28;20027;-66
2022/04/24 02:16:06;;;;;;;15.95;8.27;;;;;;;;;;5083272;28;20027;-70
2022/04/24 02:18:31;;;;;;;19.73;8.95;;;;;;;;;;5082986;28;20020;-65
2022/04/24 02:20:57;;;;;;;18.38;8.70;;;;;;;;;;5071339;28;20374;-67
2022/04/24 02:23:22;;;;;;;18.27;7.68;;;;;;;;;;5082064;28;20359;-74
2022/04/24 02:25:47;;;;;;;12.30;6.45;;;;;;;;;;5082113;28;20092;-68
2022/04/24 02:28:13;;;;;;;7.07;4.95;;;;;;;;;;5081229;28;20027;-75
2022/04/24 02:30:38;;;;;;;5.35;3.08;;;;;;;;;;5064799;28;20165;-69
2022/04/24 02:33:03;;;;;;;7.25;3.90;;;;;;;;;;5081146;28;20351;-67
2022/04/24 02:35:30;;;;;;;10.43;5.10;;;;;;;;;;5082032;28;20028;-67
2022/04/24 02:37:55;;;;;;;9.77;4.85;;;;;;;;;;5081642;28;20089;-66
2022/04/24 02:40:24;;;;;;;10.60;4.57;;;;;;;;;;5081351;28;20036;-67
2022/04/24 02:42:50;;;;;;;7.80;3.45;;;;;;;;;;5082091;28;20035;-68
2022/04/24 02:45:15;;;;;;;5.82;3.30;;;;;;;;;;5062677;28;20032;-66
2022/04/24 02:47:41;;;;;;;5.10;3.42;;;;;;;;;;5081611;28;20031;-66
2022/04/24 02:50:07;;;;;;;3.95;2.60;;;;;;;;;;5082108;28;20070;-68
2022/04/24 02:52:32;;;;;;;7.80;3.17;;;;;;;;;;5075724;28;20019;-74
2022/04/24 02:54:57;;;;;;;6.07;3.65;;;;;;;;;;5073799;28;20020;-69
2022/04/24 02:57:23;;;;;;;6.57;3.53;;;;;;;;;;5078827;28;20036;-68
2022/04/24 02:59:49;;;;;;;5.68;2.88;;;;;;;;;;5081962;28;20024;-74
2022/04/24 03:02:15;;;;;;;7.28;3.40;;;;;;;;;;5081875;28;20096;-66
2022/04/24 03:04:40;;;;;;;4.85;2.90;;;;;;;;;;5081397;28;20047;-67
2022/04/24 03:07:06;;;;;;;7.22;3.50;;;;;;;;;;5081467;28;20335;-72
2022/04/24 03:09:31;;;;;;;6.20;3.80;;;;;;;;;;5081198;28;20350;-69
2022/04/24 03:11:57;;;;;;;8.02;3.97;;;;;;;;;;5081471;28;20046;-73
2022/04/24 03:14:22;;;;;;;8.48;4.28;;;;;;;;;;5079563;28;20028;-73
2022/04/24 03:16:47;;;;;;;10.93;5.70;;;;;;;;;;5081607;28;20024;-69
2022/04/24 03:19:13;;;;;;;6.40;4.75;;;;;;;;;;5071878;28;20111;-65
2022/04/24 03:21:38;;;;;;;8.13;4.10;;;;;;;;;;5080391;28;20028;-66
2022/04/24 03:24:03;;;;;;;8.07;4.95;;;;;;;;;;5078527;28;20027;-66
2022/04/24 03:26:29;;;;;;;7.97;4.60;;;;;;;;;;5080555;28;20030;-66
2022/04/24 03:28:55;;;;;;;6.38;4.00;;;;;;;;;;5081102;28;20030;-68
2022/04/24 03:31:20;;;;;;;6.22;4.13;;;;;;;;;;5079690;28;20455;-67
2022/04/24 03:33:45;;;;;;;8.85;5.10;;;;;;;;;;5080732;28;20122;-67
2022/04/24 03:36:11;;;;;;;11.73;6.25;;;;;;;;;;5080140;28;20028;-66
2022/04/24 03:38:36;;;;;;;15.98;8.38;;;;;;;;;;5081426;28;20032;-70
2022/04/24 03:41:01;;;;;;;12.40;6.43;;;;;;;;;;5080598;28;20036;-69
2022/04/24 03:43:27;;;;;;;15.52;7.38;;;;;;;;;;5079984;28;20039;-67
2022/04/24 03:45:52;;;;;;;25.60;17.05;;;;;;;;;;5080577;28;20084;-70
2022/04/24 03:48:18;;;;;;;51.58;38.80;;;;;;;;;;5080298;28;20351;-67
2022/04/24 03:50:43;;;;;;;34.83;24.42;;;;;;;;;;5079941;28;20024;-67
2022/04/24 03:53:09;;;;;;;17.33;10.70;;;;;;;;;;5080785;28;20458;-65
2022/04/24 03:55:34;;;;;;;14.48;8.13;;;;;;;;;;5081139;28;20119;-65
2022/04/24 03:58:00;;;;;;;13.18;6.57;;;;;;;;;;5080309;28;20020;-66
2022/04/24 04:00:26;;;;;;;11.43;6.20;;;;;;;;;;5080489;28;20930;-72
2022/04/24 04:02:52;;;;;;;13.48;5.57;;;;;;;;;;5081251;28;20057;-74
2022/04/24 04:05:17;;;;;;;9.13;5.30;;;;;;;;;;5080420;28;20058;-67
2022/04/24 04:07:43;;;;;;;8.00;6.10;;;;;;;;;;5080874;28;20019;-69
2022/04/24 04:10:08;;;;;;;10.43;6.63;;;;;;;;;;5080841;28;20031;-68
2022/04/24 04:12:33;;;;;;;15.43;9.00;;;;;;;;;;5080320;28;20029;-67
2022/04/24 04:15:05;;;;;;;12.32;6.13;;;;;;;;;;5079518;28;20085;-66
2022/04/24 04:17:32;;;;;;;12.82;7.88;;;;;;;;;;5080021;28;20110;-68
2022/04/24 04:19:57;;;;;;;23.30;14.27;;;;;;;;;;5079308;28;20067;-72
2022/04/24 04:22:23;;;;;;;12.43;8.82;;;;;;;;;;5079842;28;20136;-67
2022/04/24 04:24:48;;;;;;;13.82;7.88;;;;;;;;;;5080390;28;20034;-69
2022/04/24 04:27:13;;;;;;;10.65;6.07;;;;;;;;;;5077002;28;20032;-68
2022/04/24 04:29:39;;;;;;;18.38;9.30;;;;;;;;;;5067467;28;20040;-66
2022/04/24 04:32:04;;;;;;;15.57;11.48;;;;;;;;;;5076618;28;20020;-68
2022/04/24 04:34:29;;;;;;;12.50;8.18;;;;;;;;;;5080754;28;20032;-68
2022/04/24 04:36:55;;;;;;;16.02;10.82;;;;;;;;;;5071227;28;20028;-76
2022/04/24 04:39:20;;;;;;;12.07;9.05;;;;;;;;;;5075392;28;20051;-73
2022/04/24 04:41:46;;;;;;;10.05;6.68;;;;;;;;;;5066785;28;20113;-72
2022/04/24 04:44:11;;;;;;;8.13;5.68;;;;;;;;;;5061203;28;20036;-78
2022/04/24 04:46:36;;;;;;;11.20;6.32;;;;;;;;;;5082543;28;20089;-70
2022/04/24 04:49:02;;;;;;;11.57;7.57;;;;;;;;;;5077706;28;20113;-68
2022/04/24 04:51:27;;;;;;;17.85;10.30;;;;;;;;;;5065988;28;20122;-66
2022/04/24 04:53:55;;;;;;;15.07;10.10;;;;;;;;;;5067280;28;20031;-68
2022/04/24 04:56:20;;;;;;;13.45;8.88;;;;;;;;;;5070539;28;20042;-77
2022/04/24 04:58:46;;;;;;;13.75;7.18;;;;;;;;;;5070823;28;20419;-72
2022/04/24 05:01:11;;;;;;;11.68;5.32;;;;;;;;;;5073120;28;20036;-70
2022/04/24 05:03:37;;;;;;;10.65;5.65;;;;;;;;;;5073905;28;20024;-67
2022/04/24 05:06:02;;;;;;;56.05;33.83;;;;;;;;;;5070629;28;20051;-75
2022/04/24 05:08:28;;;;;;;54.72;35.83;;;;;;;;;;5069465;28;20103;-66
2022/04/24 05:10:53;;;;;;;44.47;28.85;;;;;;;;;;5070860;28;20032;-69
2022/04/24 05:13:18;;;;;;;41.28;27.98;;;;;;;;;;5080632;28;20039;-69
2022/04/24 05:15:43;;;;;;;57.25;36.55;;;;;;;;;;5083583;28;20642;-72
2022/04/24 05:18:09;;;;;;;32.75;20.75;;;;;;;;;;5071012;28;20423;-67
2022/04/24 05:20:34;;;;;;;21.38;14.52;;;;;;;;;;5070456;28;20032;-68
2022/04/24 05:23:04;;;;;;;26.42;17.27;;;;;;;;;;5067515;28;20073;-73
2022/04/24 05:25:29;;;;;;;23.73;15.48;;;;;;;;;;5055730;28;20069;-67
2022/04/24 05:27:54;;;;;;;21.52;12.38;;;;;;;;;;5071995;28;20028;-67
2022/04/24 05:30:20;;;;;;;39.03;24.42;;;;;;;;;;5084033;28;20150;-67
2022/04/24 05:32:50;;;;;;;30.67;21.35;;;;;;;;;;5084621;28;20031;-68
2022/04/24 05:35:16;;;;;;;59.70;35.67;;;;;;;;;;5083698;28;20111;-75
2022/04/24 05:37:41;;;;;;;80.72;46.28;;;;;;;;;;5084426;28;20067;-68
2022/04/24 05:40:07;;;;;;;80.63;42.63;;;;;;;;;;5077579;28;20064;-69
2022/04/24 05:42:33;;;;;;;56.53;35.15;;;;;;;;;;5079371;28;20105;-69
2022/04/24 05:44:59;;;;;;;42.72;26.10;;;;;;;;;;5076834;28;20335;-68
2022/04/24 05:47:24;;;;;;;49.95;28.90;;;;;;;;;;5072688;28;20039;-69
2022/04/24 05:49:50;;;;;;;41.50;26.23;;;;;;;;;;5081921;28;20024;-70
2022/04/24 05:52:15;;;;;;;36.45;26.50;;;;;;;;;;5082344;28;20405;-69
2022/04/24 05:54:40;;;;;;;26.63;19.38;;;;;;;;;;5070345;28;20462;-70
2022/04/24 05:57:06;;;;;;;24.27;13.43;;;;;;;;;;5080067;28;20043;-71
2022/04/24 05:59:31;;;;;;;21.73;14.20;;;;;;;;;;5083110;28;20063;-68
2022/04/24 06:01:56;;;;;;;22.67;13.52;;;;;;;;;;5077721;28;20039;-71
2022/04/24 06:04:22;;;;;;;20.67;11.80;;;;;;;;;;5077246;28;20059;-69
2022/04/24 06:06:47;;;;;;;15.75;10.10;;;;;;;;;;5082283;28;20024;-69
2022/04/24 06:09:13;;;;;;;14.98;8.40;;;;;;;;;;5081483;28;20802;-68
2022/04/24 06:11:41;;;;;;;38.83;20.23;;;;;;;;;;5083656;28;20024;-68
2022/04/24 06:14:06;;;;;;;13.25;7.05;;;;;;;;;;5082729;28;20028;-70
2022/04/24 06:16:31;;;;;;;39.78;26.48;;;;;;;;;;5081223;28;20111;-69
2022/04/24 06:18:57;;;;;;;17.38;11.55;;;;;;;;;;5071802;28;20393;-68
2022/04/24 06:21:22;;;;;;;20.30;11.40;;;;;;;;;;5077114;28;20362;-68
2022/04/24 06:23:47;;;;;;;14.25;9.13;;;;;;;;;;5067370;28;20478;-66
2022/04/24 06:26:12;;;;;;;17.55;9.90;;;;;;;;;;5073759;28;20032;-67
2022/04/24 06:28:38;;;;;;;40.85;29.45;;;;;;;;;;5082193;28;20024;-70
2022/04/24 06:31:03;;;;;;;20.40;12.73;;;;;;;;;;5081752;28;20043;-71
2022/04/24 06:33:28;;;;;;;16.95;8.43;;;;;;;;;;5081737;28;20032;-70
2022/04/24 06:35:55;;;;;;;20.17;12.63;;;;;;;;;;5064484;28;20088;-74
2022/04/24 06:38:22;;;;;;;13.75;8.77;;;;;;;;;;5083479;28;20369;-68
2022/04/24 06:40:47;;;;;;;10.68;7.13;;;;;;;;;;5083043;28;20028;-69
2022/04/24 06:43:13;;;;;;;9.20;6.50;;;;;;;;;;5065110;28;20450;-69
2022/04/24 06:45:39;;;;;;;7.85;3.90;;;;;;;;;;5073804;28;20443;-70
2022/04/24 06:48:06;;;;;;;13.77;6.68;;;;;;;;;;5066855;28;20510;-68
2022/04/24 06:50:31;;;;;;;12.35;7.97;;;;;;;;;;5068833;28;21173;-70
2022/04/24 06:53:04;;;;;;;7.85;4.55;;;;;;;;;;5076841;28;20036;-72
2022/04/24 06:55:30;;;;;;;5.53;2.97;;;;;;;;;;5081117;28;20028;-69
2022/04/24 06:57:56;;;;;;;5.05;1.92;;;;;;;;;;5081084;28;20182;-69
2022/04/24 07:00:22;;;;;;;6.25;2.88;;;;;;;;;;5081678;28;20147;-69
2022/04/24 07:02:48;;;;;;;6.57;2.55;;;;;;;;;;5083019;28;20020;-69
2022/04/24 07:05:13;;;;;;;4.45;2.50;;;;;;;;;;5082165;28;20044;-72
2022/04/24 07:07:39;;;;;;;5.47;2.35;;;;;;;;;;5081126;28;20032;-69
2022/04/24 07:10:04;;;;;;;4.78;1.92;;;;;;;;;;5080722;28;20020;-70
2022/04/24 07:12:30;;;;;;;6.53;1.83;;;;;;;;;;5080300;28;21323;-68
2022/04/24 07:14:55;;;;;;;5.05;1.85;;;;;;;;;;5081269;28;20059;-75
2022/04/24 07:17:21;;;;;;;7.97;3.95;;;;;;;;;;5081575;28;20446;-70
2022/04/24 07:19:47;;;;;;;11.43;3.53;;;;;;;;;;5079523;28;20020;-69
2022/04/24 07:22:12;;;;;;;4.75;1.88;;;;;;;;;;5081526;28;20069;-69
2022/04/24 07:24:38;;;;;;;10.30;1.98;;;;;;;;;;5081568;28;20399;-70
2022/04/24 07:27:03;;;;;;;5.93;1.98;;;;;;;;;;5081401;28;20023;-69
2022/04/24 07:29:28;;;;;;;4.53;2.55;;;;;;;;;;5081400;28;20035;-69
2022/04/24 07:31:53;;;;;;;5.80;1.90;;;;;;;;;;5071416;28;20035;-73
2022/04/24 07:34:19;;;;;;;4.43;1.75;;;;;;;;;;5067162;28;20026;-69
2022/04/24 07:36:44;;;;;;;5.80;1.50;;;;;;;;;;5075432;28;20068;-69
2022/04/24 07:39:10;;;;;;;7.68;3.20;;;;;;;;;;5051754;28;20028;-70
2022/04/24 07:41:35;;;;;;;4.88;2.38;;;;;;;;;;5071236;28;20036;-69
2022/04/24 07:44:01;;;;;;;3.55;1.75;;;;;;;;;;5079059;28;20023;-71
2022/04/24 07:46:27;;;;;;;6.03;2.30;;;;;;;;;;5069128;28;21289;-69
2022/04/24 07:48:52;;;;;;;9.35;4.22;;;;;;;;;;5072109;28;20023;-69
2022/04/24 07:51:17;;;;;;;6.57;4.05;;;;;;;;;;5069897;28;20088;-69
2022/04/24 07:53:44;;;;;;;7.35;3.30;;;;;;;;;;5067397;28;20027;-77
2022/04/24 07:56:09;;;;;;;5.70;3.50;;;;;;;;;;5068960;28;20032;-71
2022/04/24 07:58:34;;;;;;;8.95;1.88;;;;;;;;;;5075382;28;20072;-70
2022/04/24 08:01:00;;;;;;;2.38;1.20;;;;;;;;;;5067066;28;20432;-71
2022/04/24 08:03:25;;;;;;;7.63;2.45;;;;;;;;;;5067483;28;20024;-72
2022/04/24 08:05:51;;;;;;;6.53;4.45;;;;;;;;;;5062573;28;20136;-73
2022/04/24 08:08:23;;;;;;;7.18;4.93;;;;;;;;;;5075180;28;20917;-74
2022/04/24 08:10:50;;;;;;;12.15;2.22;;;;;;;;;;5083538;28;20048;-75
2022/04/24 08:13:16;;;;;;;2.65;1.30;;;;;;;;;;5088345;28;20119;-71
2022/04/24 08:15:42;;;;;;;4.55;2.38;;;;;;;;;;5089293;28;20029;-74
2022/04/24 08:18:07;;;;;;;8.10;2.60;;;;;;;;;;5089615;28;20461;-73
2022/04/24 08:20:34;;;;;;;3.15;1.60;;;;;;;;;;5086832;28;20062;-70
2022/04/24 08:23:01;;;;;;;5.63;2.85;;;;;;;;;;5079390;28;20055;-72
2022/04/24 08:25:27;;;;;;;8.40;4.55;;;;;;;;;;5077544;28;20020;-71
2022/04/24 08:27:53;;;;;;;8.30;4.57;;;;;;;;;;5080885;28;20028;-74
2022/04/24 08:30:20;;;;;;;7.47;3.47;;;;;;;;;;5082311;28;20031;-71
2022/04/24 08:32:46;;;;;;;6.72;3.33;;;;;;;;;;5085579;28;20077;-71
2022/04/24 08:35:12;;;;;;;7.82;3.40;;;;;;;;;;5084407;28;20036;-75
2022/04/24 08:37:38;;;;;;;4.13;1.88;;;;;;;;;;5084948;28;20783;-73
2022/04/24 08:40:07;;;;;;;4.60;1.88;;;;;;;;;;5084121;28;20024;-75
2022/04/24 08:42:33;;;;;;;2.35;1.10;;;;;;;;;;5084635;28;20396;-72
2022/04/24 08:44:58;;;;;;;4.15;1.90;;;;;;;;;;5084600;28;20020;-72
2022/04/24 08:47:25;;;;;;;4.80;2.55;;;;;;;;;;5084001;28;20135;-72
2022/04/24 08:49:54;;;;;;;4.90;2.10;;;;;;;;;;5082876;28;20020;-71
2022/04/24 08:52:20;;;;;;;2.90;1.30;;;;;;;;;;5083304;28;20030;-72
2022/04/24 08:54:46;;;;;;;4.22;1.75;;;;;;;;;;5084393;28;20036;-76
2022/04/24 08:57:14;;;;;;;3.72;1.50;;;;;;;;;;5085183;28;21029;-72
2022/04/24 08:59:39;;;;;;;5.33;1.83;;;;;;;;;;5083681;28;20124;-72
2022/04/24 09:02:05;;;;;;;4.82;1.67;;;;;;;;;;5083547;28;20340;-71
2022/04/24 09:04:32;;;;;;;3.97;1.73;;;;;;;;;;5083860;28;20133;-71
2022/04/24 09:06:58;;;;;;;4.47;2.10;;;;;;;;;;5084150;28;20019;-72
2022/04/24 09:09:24;;;;;;;4.18;2.08;;;;;;;;;;5062066;28;20048;-72
2022/04/24 09:11:49;;;;;;;7.95;1.90;;;;;;;;;;5084872;28;20038;-72
2022/04/24 09:14:15;;;;;;;16.48;10.35;;;;;;;;;;5084852;28;20512;-72
2022/04/24 09:16:47;;;;;;;8.35;4.80;;;;;;;;;;5084911;28;20067;-72
2022/04/24 09:19:15;;;;;;;4.50;2.00;;;;;;;;;;5083997;28;20035;-74
2022/04/24 09:21:40;;;;;;;5.40;3.50;;;;;;;;;;5084414;28;20035;-73
2022/04/24 09:24:06;;;;;;;5.72;2.28;;;;;;;;;;5077759;28;20024;-76
2022/04/24 09:26:31;;;;;;;5.72;2.97;;;;;;;;;;5068515;28;20028;-73
2022/04/24 09:28:56;;;;;;;4.13;2.45;;;;;;;;;;5070177;28;20024;-73
2022/04/24 09:31:27;;;;;;;8.63;3.63;;;;;;;;;;5056573;28;20120;-76
2022/04/24 09:33:53;;;;;;;3.40;1.40;;;;;;;;;;5051517;28;20035;-75
2022/04/24 09:36:18;;;;;;;2.40;1.02;;;;;;;;;;5072274;28;20031;-81
2022/04/24 09:38:44;;;;;;;3.97;2.78;;;;;;;;;;5077271;28;20036;-76
2022/04/24 09:41:22;;;;;;;11.95;8.90;;;;;;;;;;5076316;28;21148;-76
2022/04/24 09:43:48;;;;;;;16.77;11.60;;;;;;;;;;5037210;28;20039;-76
2022/04/24 09:46:22;;;;;;;7.72;3.65;;;;;;;;;;5076217;28;20065;-77
2022/04/24 09:48:51;;;;;;;8.15;2.92;;;;;;;;;;5067748;28;20523;-77
2022/04/24 09:51:17;;;;;;;2.97;2.08;;;;;;;;;;5051886;28;20028;-77
2022/04/24 09:53:42;;;;;;;2.25;1.02;;;;;;;;;;5051253;28;20024;-75
2022/04/24 09:56:08;;;;;;;3.50;1.88;;;;;;;;;;5064302;28;20107;-75
2022/04/24 09:58:35;;;;;;;3.30;0.95;;;;;;;;;;5054606;28;20126;-75
2022/04/24 10:01:00;;;;;;;4.85;1.35;;;;;;;;;;5049553;28;20355;-76
2022/04/24 10:03:26;;;;;;;3.58;1.30;;;;;;;;;;5066536;28;20043;-76
2022/04/24 10:05:51;;;;;;;3.58;1.13;;;;;;;;;;5057649;28;20036;-76
2022/04/24 10:08:18;;;;;;;5.50;1.60;;;;;;;;;;5051551;28;20032;-76
2022/04/24 10:10:43;;;;;;;5.90;1.42;;;;;;;;;;5051448;28;20043;-76
2022/04/24 10:13:12;;;;;;;4.00;1.55;;;;;;;;;;5051687;28;20482;-76
2022/04/24 10:15:46;;;;;;;2.45;1.40;;;;;;;;;;5075664;28;20341;-76
2022/04/24 10:18:20;;;;;;;5.15;1.35;;;;;;;;;;5063005;28;20032;-76
2022/04/24 10:20:52;;;;;;;9.23;4.32;;;;;;;;;;5051081;28;20533;-75
2022/04/24 10:23:32;;;;;;;2.90;1.70;;;;;;;;;;5048706;28;20019;-75
2022/04/24 10:25:57;;;;;;;4.70;1.30;;;;;;;;;;5048095;28;20046;-76
2022/04/24 10:28:27;;;;;;;2.88;1.55;;;;;;;;;;5065131;28;20451;-77
2022/04/24 10:30:59;;;;;;;4.07;1.83;;;;;;;;;;5076023;28;20016;-77
2022/04/24 10:33:28;;;;;;;5.32;2.80;;;;;;;;;;5076320;28;20020;-77
2022/04/24 10:35:53;;;;;;;4.97;1.80;;;;;;;;;;5077025;28;20442;-77
2022/04/24 10:38:20;;;;;;;2.63;1.70;;;;;;;;;;5076775;28;20108;-77
2022/04/24 10:41:03;;;;;;;1.75;1.10;;;;;;;;;;5076482;28;20883;-76
2022/04/24 10:43:38;;;;;;;3.40;1.10;;;;;;;;;;5067526;28;20047;-79
2022/04/24 10:46:17;;;;;;;10.73;1.42;;;;;;;;;;5032870;28;20102;-76
2022/04/24 10:48:42;;;;;;;2.67;1.00;;;;;;;;;;5031691;28;20032;-76
2022/04/24 10:51:08;;;;;;;1.90;0.90;;;;;;;;;;5054841;28;20032;-77
2022/04/24 10:53:52;;;;;;;5.95;3.80;;;;;;;;;;5073859;28;20613;-76
2022/04/24 10:56:18;;;;;;;7.43;3.55;;;;;;;;;;5073392;28;20020;-75
2022/04/24 10:58:43;;;;;;;4.70;1.85;;;;;;;;;;5072854;28;20097;-76
2022/04/24 11:01:09;;;;;;;9.60;4.60;;;;;;;;;;5056822;28;20500;-75
2022/04/24 11:03:41;;;;;;;3.70;1.42;;;;;;;;;;5073326;28;20075;-76
2022/04/24 11:06:16;;;;;;;5.50;2.90;;;;;;;;;;5074045;28;20200;-77
2022/04/24 11:08:42;;;;;;;6.30;3.90;;;;;;;;;;5073010;28;20031;-76
2022/04/24 11:11:08;;;;;;;3.67;2.70;;;;;;;;;;5074293;28;20039;-76
2022/04/24 11:13:33;;;;;;;4.35;1.67;;;;;;;;;;5074596;28;20032;-77
2022/04/24 11:15:59;;;;;;;3.85;2.13;;;;;;;;;;5072310;28;20466;-76
2022/04/24 11:18:26;;;;;;;4.88;1.92;;;;;;;;;;5076005;28;20028;-76
2022/04/24 11:20:55;;;;;;;6.75;3.58;;;;;;;;;;5073971;28;20028;-77
2022/04/24 11:23:24;;;;;;;10.38;3.05;;;;;;;;;;5074693;28;20018;-76
2022/04/24 11:25:52;;;;;;;3.90;1.63;;;;;;;;;;5073496;28;20027;-75
2022/04/24 11:28:17;;;;;;;6.63;2.13;;;;;;;;;;5073341;28;20123;-77
2022/04/24 11:30:42;;;;;;;7.20;3.00;;;;;;;;;;5073153;28;20416;-77
2022/04/24 11:33:08;;;;;;;5.53;1.75;;;;;;;;;;5073123;28;20338;-76
2022/04/24 11:35:37;;;;;;;8.23;2.80;;;;;;;;;;5074124;28;20615;-75
2022/04/24 11:38:03;;;;;;;6.35;1.50;;;;;;;;;;5074806;28;20275;-77
2022/04/24 11:40:29;;;;;;;6.75;2.78;;;;;;;;;;5073122;28;20023;-77
2022/04/24 11:43:04;;;;;;;6.43;1.88;;;;;;;;;;5074411;28;20031;-78
2022/04/24 11:51:02;;;;;;;8.50;3.47;;;;;;;;;;5075554;28;20458;-78
2022/04/24 11:53:28;;;;;;;10.57;4.80;;;;;;;;;;5073172;28;20038;-78
2022/04/24 11:56:02;;;;;;;9.82;3.67;;;;;;;;;;5072636;28;20028;-77
2022/04/24 11:58:31;;;;;;;7.63;2.28;;;;;;;;;;5074917;28;20012;-76
2022/04/24 12:00:57;;;;;;;;;;;;;;;;;;5074551;28;20035;-75
2022/04/24 12:03:23;;;;;;;8.33;2.80;;;;;;;;;;5074722;28;19912;-77
2022/04/24 12:05:58;;;;;;;11.52;2.20;;;;;;;;;;5073371;28;20406;-78
2022/04/24 12:08:23;;;;;;;5.43;2.38;;;;;;;;;;5072787;28;20489;-79
2022/04/24 12:10:48;;;;;;;6.78;2.10;;;;;;;;;;5074380;28;20024;-77
2022/04/24 12:13:21;;;;;;;5.85;1.65;;;;;;;;;;5074453;28;20036;-77
2022/04/24 12:15:53;;;;;;;6.18;1.85;;;;;;;;;;5072510;28;20028;-77
2022/04/24 12:18:22;;;;;;;4.82;1.80;;;;;;;;;;5073145;28;20060;-75
2022/04/24 12:20:49;;;;;;;4.20;1.73;;;;;;;;;;5073894;28;20039;-76
2022/04/24 12:23:15;;;;;;;7.70;1.52;;;;;;;;;;5073076;28;20101;-76
2022/04/24 12:25:48;;;;;;;7.30;2.08;;;;;;;;;;5073364;28;20024;-77
2022/04/24 12:28:26;;;;;;;3.72;1.30;;;;;;;;;;5074625;28;21027;-78
2022/04/24 12:30:51;;;;;;;6.07;2.72;;;;;;;;;;5074963;28;20451;-78
2022/04/24 12:33:16;;;;;;;9.15;1.90;;;;;;;;;;5074273;28;20035;-77
2022/04/24 12:35:42;;;;;;;5.43;1.75;;;;;;;;;;5072759;28;20117;-76
2022/04/24 12:38:14;;;;;;;4.25;1.58;;;;;;;;;;5073616;28;20151;-78
2022/04/24 12:40:39;;;;;;;5.25;1.45;;;;;;;;;;5073275;28;20032;-76
2022/04/24 12:43:05;;;;;;;3.78;1.40;;;;;;;;;;5073992;28;21728;-77
2022/04/24 12:45:32;;;;;;;3.95;1.83;;;;;;;;;;5073520;28;20024;-75
2022/04/24 12:47:57;;;;;;;4.80;1.23;;;;;;;;;;5074094;28;20020;-77
2022/04/24 12:50:23;;;;;;;4.38;1.45;;;;;;;;;;5073539;28;20028;-78
2022/04/24 12:52:48;;;;;;;5.47;1.38;;;;;;;;;;5072760;28;20032;-76
2022/04/24 12:55:14;;;;;;;3.85;1.42;;;;;;;;;;5073866;28;20114;-77
2022/04/24 12:57:40;;;;;;;7.22;1.88;;;;;;;;;;5074798;28;20031;-76
2022/04/24 13:00:06;;;;;;;7.10;2.13;;;;;;;;;;5073227;28;20027;-77
2022/04/24 13:02:32;;;;;;;7.10;1.90;;;;;;;;;;5074319;28;20105;-77
2022/04/24 13:04:57;;;;;;;6.18;1.95;;;;;;;;;;5073851;28;20049;-76
2022/04/24 13:07:25;;;;;;;5.55;1.98;;;;;;;;;;5074815;28;20373;-75
2022/04/24 13:09:50;;;;;;;8.52;3.22;;;;;;;;;;5073589;28;20115;-78
2022/04/24 13:12:15;;;;;;;7.15;3.47;;;;;;;;;;5073739;28;20119;-78
2022/04/24 13:14:41;;;;;;;10.60;1.77;;;;;;;;;;5074747;28;20038;-77
2022/04/24 13:19:50;;;;;;;7.95;2.10;;;;;;;;;;5078665;28;20039;-78
2022/04/24 13:22:17;;;;;;;9.05;3.17;;;;;;;;;;5078657;28;20050;-78
2022/04/24 13:24:42;;;;;;;7.88;2.58;;;;;;;;;;5078445;28;20027;-77
2022/04/24 13:27:07;;;;;;;6.18;2.42;;;;;;;;;;5077267;28;20423;-77
2022/04/24 13:29:33;;;;;;;4.88;2.50;;;;;;;;;;5077292;28;20036;-76
2022/04/24 13:31:58;;;;;;;5.60;1.70;;;;;;;;;;5077365;28;20077;-78
2022/04/24 13:34:23;;;;;;;7.57;2.00;;;;;;;;;;5076967;28;20115;-77
2022/04/24 13:38:17;;;;;;;8.43;2.92;;;;;;;;;;5078289;28;20035;-78
2022/04/24 13:39:34;;;;;;;4.65;1.92;;;;;;;;;;5077897;28;20027;-76
2022/04/24 13:41:59;;;;;;;3.92;1.40;;;;;;;;;;5077353;28;20024;-77
2022/04/24 13:44:24;;;;;;;5.05;1.60;;;;;;;;;;5077444;28;20059;-77
2022/04/24 13:46:50;;;;;;;6.82;2.17;;;;;;;;;;5076383;28;20040;-76
2022/04/24 13:49:15;;;;;;;5.40;1.80;;;;;;;;;;5076702;28;20028;-79
2022/04/24 13:51:40;;;;;;;5.68;2.00;;;;;;;;;;5078514;28;20034;-76
2022/04/24 13:54:08;;;;;;;6.95;3.03;;;;;;;;;;5077166;28;20500;-78
2022/04/24 13:56:33;;;;;;;6.90;2.70;;;;;;;;;;5075455;28;20106;-77
2022/04/24 13:58:58;;;;;;;7.32;2.63;;;;;;;;;;5058949;28;20126;-79
2022/04/24 14:01:25;;;;;;;4.78;2.00;;;;;;;;;;5077179;28;20028;-78
2022/04/24 14:03:52;;;;;;;8.13;2.38;;;;;;;;;;5076929;28;20049;-77
2022/04/24 14:06:17;;;;;;;8.77;2.30;;;;;;;;;;5076331;28;20087;-78
2022/04/24 14:08:42;;;;;;;5.35;1.50;;;;;;;;;;5077899;28;20438;-78
2022/04/24 14:11:10;;;;;;;6.38;2.13;;;;;;;;;;5076593;28;20089;-76
2022/04/24 14:13:36;;;;;;;8.02;1.73;;;;;;;;;;5077536;28;21143;-77
2022/04/24 14:16:01;;;;;;;7.32;2.55;;;;;;;;;;5077063;28;20016;-76
2022/04/24 14:18:26;;;;;;;6.43;2.40;;;;;;;;;;5076008;28;20047;-78
2022/04/24 14:20:52;;;;;;;10.07;3.25;;;;;;;;;;5059600;28;20099;-77
2022/04/24 14:23:20;;;;;;;4.47;1.42;;;;;;;;;;5075795;28;20044;-78
2022/04/24 14:25:45;;;;;;;6.60;1.65;;;;;;;;;;5076127;28;20063;-76
2022/04/24 14:28:11;;;;;;;6.32;2.42;;;;;;;;;;5075946;28;20054;-77
2022/04/24 14:30:36;;;;;;;6.88;1.83;;;;;;;;;;5075632;28;20521;-78
2022/04/24 14:33:01;;;;;;;11.02;3.95;;;;;;;;;;5075577;28;20530;-77
2022/04/24 14:35:27;;;;;;;19.45;10.02;;;;;;;;;;5076910;28;20039;-77
2022/04/24 14:37:52;;;;;;;9.38;2.95;;;;;;;;;;5076632;28;20443;-77